Time;durP1;ratioP1;P1;durP2;ratioP2;P2;SDS_P1;SDS_P2;PMS_P1;PMS_P2;Temp;Humidity;BMP_temperature;BMP_pressure;BME280_temperature;BME280_humidity;BME280_pressure;Samples;Min_cycle;Max_cycle;Signal;HPM_P1;HPM_P2
2021/05/23 00:01:36;;;;;;;17.27;4.75;;;10.80;99.90;;;;;;5060376;28;20362;-78
2021/05/23 00:04:02;;;;;;;15.48;4.68;;;10.70;99.90;;;;;;5072265;28;20039;-78
2021/05/23 00:06:28;;;;;;;12.55;4.68;;;10.70;99.90;;;;;;5061642;28;20044;-78
2021/05/23 00:08:53;;;;;;;14.60;4.75;;;10.70;99.90;;;;;;5069760;28;20024;-78
2021/05/23 00:11:19;;;;;;;11.88;4.85;;;10.70;99.90;;;;;;5074980;28;20029;-78
2021/05/23 00:13:48;;;;;;;14.95;5.07;;;10.70;99.90;;;;;;5061629;28;20098;-78
2021/05/23 00:16:22;;;;;;;11.25;4.90;;;10.70;99.90;;;;;;5064222;28;20523;-78
2021/05/23 00:18:51;;;;;;;10.82;4.00;;;10.70;99.90;;;;;;5057125;28;20404;-78
2021/05/23 00:21:20;;;;;;;14.68;4.50;;;10.70;99.90;;;;;;5069605;28;20555;-78
2021/05/23 00:23:46;;;;;;;14.98;4.70;;;10.70;99.90;;;;;;5064730;28;20099;-78
2021/05/23 00:26:12;;;;;;;10.88;4.07;;;10.70;99.90;;;;;;5076601;28;20017;-78
2021/05/23 00:28:38;;;;;;;9.52;4.47;;;10.70;99.90;;;;;;5073950;28;20033;-78
2021/05/23 00:31:05;;;;;;;11.55;5.53;;;10.70;99.90;;;;;;5057739;28;20468;-78
2021/05/23 00:33:31;;;;;;;9.95;4.05;;;10.70;99.90;;;;;;5075185;28;20024;-78
2021/05/23 00:35:57;;;;;;;15.70;4.53;;;10.80;99.90;;;;;;5076842;28;20182;-78
2021/05/23 00:38:23;;;;;;;10.43;4.20;;;10.80;99.90;;;;;;5069553;28;20056;-78
2021/05/23 00:40:48;;;;;;;12.30;4.43;;;10.70;99.90;;;;;;5072062;28;20034;-78
2021/05/23 00:43:17;;;;;;;15.10;4.80;;;10.70;99.90;;;;;;5086337;28;20025;-78
2021/05/23 00:45:45;;;;;;;10.57;4.45;;;10.70;99.90;;;;;;5093385;28;20031;-78
2021/05/23 00:48:12;;;;;;;11.63;4.43;;;10.70;99.90;;;;;;5089990;28;20024;-78
2021/05/23 00:50:37;;;;;;;15.00;4.65;;;10.70;99.90;;;;;;5083786;28;20004;-77
2021/05/23 00:53:05;;;;;;;13.88;4.70;;;10.70;99.90;;;;;;5096855;28;20023;-78
2021/05/23 00:55:31;;;;;;;11.15;4.22;;;10.70;99.90;;;;;;5091754;28;20031;-77
2021/05/23 00:57:57;;;;;;;13.38;4.35;;;10.70;99.90;;;;;;5099216;28;20037;-78
2021/05/23 01:00:41;;;;;;;8.35;4.35;;;10.70;99.90;;;;;;5089487;28;20020;-79
2021/05/23 01:03:28;;;;;;;11.98;4.55;;;10.70;99.90;;;;;;5088573;28;20020;-78
2021/05/23 01:05:54;;;;;;;11.17;4.90;;;10.60;99.90;;;;;;5092366;28;20040;-76
2021/05/23 01:08:22;;;;;;;16.58;4.47;;;10.70;99.90;;;;;;5071400;28;20084;-78
2021/05/23 01:11:03;;;;;;;18.35;5.78;;;10.70;99.90;;;;;;5071477;28;20043;-78
2021/05/23 01:13:35;;;;;;;19.23;5.93;;;10.70;99.90;;;;;;5078340;28;20036;-77
2021/05/23 01:16:07;;;;;;;13.50;5.72;;;10.70;99.90;;;;;;5071331;28;20029;-78
2021/05/23 01:19:05;;;;;;;14.15;5.70;;;10.60;99.90;;;;;;5073052;28;20072;-78
2021/05/23 01:21:37;;;;;;;14.77;7.25;;;10.60;99.90;;;;;;5071959;28;20059;-78
2021/05/23 01:24:11;;;;;;;15.65;6.95;;;10.60;99.90;;;;;;5069774;28;20041;-78
2021/05/23 01:26:43;;;;;;;11.73;6.53;;;10.60;99.90;;;;;;5075339;28;20380;-78
2021/05/23 01:29:10;;;;;;;19.30;6.93;;;10.60;99.90;;;;;;5073410;28;20039;-78
2021/05/23 01:31:37;;;;;;;17.27;6.67;;;10.60;99.90;;;;;;5074162;28;20028;-78
2021/05/23 01:34:04;;;;;;;21.15;7.95;;;10.60;99.90;;;;;;5074122;28;20439;-79
2021/05/23 01:36:36;;;;;;;14.32;6.95;;;10.60;99.90;;;;;;5074036;28;20029;-78
2021/05/23 01:39:07;;;;;;;10.00;6.13;;;10.60;99.90;;;;;;5072836;28;20032;-78
2021/05/23 01:41:34;;;;;;;13.07;6.75;;;10.60;99.90;;;;;;5070409;28;20024;-77
2021/05/23 01:44:00;;;;;;;15.57;7.10;;;10.70;99.90;;;;;;5079974;28;20119;-78
2021/05/23 01:46:27;;;;;;;16.13;7.03;;;10.70;99.90;;;;;;5058399;28;20102;-78
2021/05/23 01:48:53;;;;;;;17.98;7.07;;;10.70;99.90;;;;;;5065474;28;20035;-78
2021/05/23 01:51:18;;;;;;;19.00;7.50;;;10.60;99.90;;;;;;5072397;28;20020;-79
2021/05/23 01:53:44;;;;;;;16.52;6.70;;;10.70;99.90;;;;;;5071527;28;20034;-78
2021/05/23 01:56:10;;;;;;;16.70;7.38;;;10.60;99.90;;;;;;5072635;28;20029;-78
2021/05/23 01:58:36;;;;;;;16.80;6.97;;;10.60;99.90;;;;;;5054007;28;20119;-78
2021/05/23 02:01:02;;;;;;;12.82;7.38;;;10.60;99.90;;;;;;5065097;28;20024;-78
2021/05/23 02:03:28;;;;;;;17.17;7.65;;;10.60;99.90;;;;;;5074187;28;20120;-78
2021/05/23 02:05:57;;;;;;;13.27;7.03;;;10.60;99.90;;;;;;5073641;28;20112;-78
2021/05/23 02:08:25;;;;;;;16.70;6.85;;;10.70;99.90;;;;;;5065845;28;20085;-79
2021/05/23 02:10:54;;;;;;;16.38;6.80;;;10.60;99.90;;;;;;5069423;28;20139;-78
2021/05/23 02:13:21;;;;;;;24.27;6.45;;;10.60;99.90;;;;;;5065556;28;20037;-79
2021/05/23 02:15:47;;;;;;;12.77;6.53;;;10.60;99.90;;;;;;5072513;28;20037;-78
2021/05/23 02:18:13;;;;;;;13.88;6.47;;;10.60;99.90;;;;;;5075105;28;20032;-79
2021/05/23 02:20:39;;;;;;;13.10;5.25;;;10.60;99.90;;;;;;5072617;28;20366;-79
2021/05/23 02:23:28;;;;;;;13.90;6.45;;;10.60;99.90;;;;;;5071211;28;20037;-79
2021/05/23 02:25:54;;;;;;;19.48;6.40;;;10.60;99.90;;;;;;5052892;28;20052;-79
2021/05/23 02:28:20;;;;;;;11.23;6.05;;;10.50;99.90;;;;;;5070105;28;20392;-78
2021/05/23 02:30:55;;;;;;;15.43;5.63;;;10.60;99.90;;;;;;5072903;28;20020;-78
2021/05/23 02:33:22;;;;;;;16.92;6.47;;;10.60;99.90;;;;;;5074403;28;20472;-78
2021/05/23 02:35:51;;;;;;;11.65;5.60;;;10.50;99.90;;;;;;5073094;28;20025;-78
2021/05/23 02:38:17;;;;;;;17.55;5.90;;;10.60;99.90;;;;;;5070537;28;20028;-78
2021/05/23 02:40:45;;;;;;;14.45;6.57;;;10.50;99.90;;;;;;5072985;28;20086;-79
2021/05/23 02:43:11;;;;;;;11.02;6.22;;;10.60;99.90;;;;;;5073559;28;20415;-78
2021/05/23 02:45:37;;;;;;;11.98;6.82;;;10.50;99.90;;;;;;5073388;28;20044;-78
2021/05/23 02:48:05;;;;;;;14.88;6.95;;;10.60;99.90;;;;;;5066101;28;20032;-78
2021/05/23 02:50:35;;;;;;;11.02;6.75;;;10.60;99.90;;;;;;5072932;28;20032;-78
2021/05/23 02:53:01;;;;;;;14.95;6.53;;;10.60;99.90;;;;;;5071703;28;20534;-78
2021/05/23 02:55:27;;;;;;;19.67;7.30;;;10.60;99.90;;;;;;5073660;28;20021;-79
2021/05/23 02:57:53;;;;;;;14.05;7.53;;;10.60;99.90;;;;;;5074167;28;20086;-78
2021/05/23 03:00:21;;;;;;;16.17;8.18;;;10.60;99.90;;;;;;5073956;28;20111;-78
2021/05/23 03:02:49;;;;;;;16.88;8.77;;;10.70;99.90;;;;;;5073672;28;20145;-78
2021/05/23 03:05:18;;;;;;;18.48;10.00;;;10.70;99.90;;;;;;5073224;28;20536;-79
2021/05/23 03:07:46;;;;;;;19.50;9.85;;;10.70;99.90;;;;;;5069233;28;20033;-78
2021/05/23 03:10:16;;;;;;;;;;;10.70;99.90;;;;;;5072188;28;20024;-78
2021/05/23 03:12:42;;;;;;;19.98;9.60;;;10.70;99.90;;;;;;5061150;28;19908;-78
2021/05/23 03:15:13;;;;;;;19.80;10.45;;;10.70;99.90;;;;;;5064951;28;20029;-78
2021/05/23 03:17:39;;;;;;;24.70;11.20;;;10.70;99.90;;;;;;5069436;28;20044;-78
2021/05/23 03:20:07;;;;;;;17.35;10.32;;;10.70;99.90;;;;;;5056539;28;20111;-78
2021/05/23 03:22:33;;;;;;;18.88;10.23;;;10.70;99.90;;;;;;5054627;28;20497;-79
2021/05/23 03:24:59;;;;;;;22.70;11.38;;;10.70;99.90;;;;;;5054599;28;20041;-79
2021/05/23 03:27:25;;;;;;;26.02;12.10;;;10.70;99.90;;;;;;5067134;28;20025;-78
2021/05/23 03:29:50;;;;;;;21.75;12.32;;;10.70;99.90;;;;;;5070914;28;20469;-78
2021/05/23 03:32:16;;;;;;;22.95;12.02;;;10.70;99.90;;;;;;5056082;28;20029;-78
2021/05/23 03:34:42;;;;;;;31.23;12.98;;;10.70;99.90;;;;;;5076771;28;20488;-78
2021/05/23 03:37:07;;;;;;;26.30;13.43;;;10.80;99.90;;;;;;5087432;28;20033;-78
2021/05/23 03:39:33;;;;;;;25.88;13.93;;;10.80;99.90;;;;;;5089904;28;20020;-78
2021/05/23 03:41:59;;;;;;;24.73;13.40;;;10.80;99.90;;;;;;5095593;28;20083;-80
2021/05/23 03:44:24;;;;;;;21.20;13.13;;;10.80;99.90;;;;;;5096672;28;20032;-78
2021/05/23 03:46:50;;;;;;;25.75;14.50;;;10.80;99.90;;;;;;5096381;28;20088;-78
2021/05/23 03:49:16;;;;;;;30.13;15.48;;;10.90;99.90;;;;;;5088043;28;20040;-78
2021/05/23 03:51:43;;;;;;;29.15;14.52;;;10.90;99.90;;;;;;5090145;28;20013;-78
2021/05/23 03:54:10;;;;;;;26.50;14.98;;;10.90;99.90;;;;;;5092768;28;20025;-78
2021/05/23 03:56:54;;;;;;;26.75;15.05;;;11.00;99.90;;;;;;5080064;28;20099;-78
2021/05/23 03:59:20;;;;;;;27.60;16.38;;;11.00;99.90;;;;;;5097646;28;20033;-77
2021/05/23 04:01:45;;;;;;;32.83;17.25;;;11.00;99.90;;;;;;5075565;28;20507;-77
2021/05/23 04:04:11;;;;;;;30.27;17.20;;;11.00;99.90;;;;;;5073783;28;20004;-77
2021/05/23 04:06:36;;;;;;;31.33;17.40;;;11.10;99.90;;;;;;5078656;28;20032;-77
2021/05/23 04:09:02;;;;;;;30.02;17.35;;;11.00;99.90;;;;;;5065480;28;20048;-76
2021/05/23 04:11:34;;;;;;;27.27;15.98;;;11.00;99.90;;;;;;5076606;28;20025;-76
2021/05/23 04:14:00;;;;;;;26.98;15.70;;;10.90;99.90;;;;;;5077187;28;20033;-77
2021/05/23 04:16:25;;;;;;;31.58;16.88;;;10.90;99.90;;;;;;5077209;28;20082;-77
2021/05/23 04:18:51;;;;;;;25.83;14.60;;;10.90;99.90;;;;;;5063922;28;20025;-77
2021/05/23 04:21:17;;;;;;;24.90;14.32;;;10.90;99.90;;;;;;5061185;28;20024;-77
2021/05/23 04:23:42;;;;;;;26.25;14.65;;;10.80;99.90;;;;;;5070769;28;20110;-77
2021/05/23 04:26:08;;;;;;;22.75;13.30;;;10.80;99.90;;;;;;5070758;28;20048;-77
2021/05/23 04:28:33;;;;;;;21.92;14.35;;;10.80;99.90;;;;;;5064705;28;20079;-77
2021/05/23 04:30:59;;;;;;;23.33;12.63;;;10.80;99.90;;;;;;5067238;28;20025;-77
2021/05/23 04:33:25;;;;;;;29.45;13.90;;;10.80;99.90;;;;;;5072416;28;20032;-78
2021/05/23 04:35:51;;;;;;;19.60;11.98;;;10.80;99.90;;;;;;5065637;28;20037;-77
2021/05/23 04:38:17;;;;;;;20.20;12.98;;;10.80;99.90;;;;;;5068671;28;20028;-78
2021/05/23 04:40:42;;;;;;;20.25;12.20;;;10.80;99.90;;;;;;5076081;28;20036;-78
2021/05/23 04:43:08;;;;;;;22.00;12.95;;;10.80;99.90;;;;;;5065490;28;20529;-78
2021/05/23 04:45:36;;;;;;;23.33;12.93;;;10.90;99.90;;;;;;5073398;28;20024;-78
2021/05/23 04:48:02;;;;;;;17.45;10.50;;;10.90;99.90;;;;;;5071074;28;20476;-78
2021/05/23 04:50:28;;;;;;;16.05;10.00;;;10.90;99.90;;;;;;5069465;28;20044;-78
2021/05/23 04:52:54;;;;;;;15.25;9.77;;;10.90;99.90;;;;;;5072874;28;20056;-78
2021/05/23 04:55:19;;;;;;;17.30;10.63;;;10.90;99.90;;;;;;5073316;28;20111;-77
2021/05/23 04:57:45;;;;;;;16.02;8.32;;;10.90;99.90;;;;;;5060032;28;20055;-78
2021/05/23 05:00:12;;;;;;;13.32;9.00;;;10.90;99.90;;;;;;5073553;28;20032;-78
2021/05/23 05:02:41;;;;;;;12.35;8.38;;;10.90;99.90;;;;;;5074135;28;20065;-78
2021/05/23 05:05:08;;;;;;;13.55;8.30;;;11.00;99.90;;;;;;5073176;28;20031;-78
2021/05/23 05:07:33;;;;;;;8.70;6.25;;;10.90;99.90;;;;;;5073639;28;20032;-78
2021/05/23 05:09:59;;;;;;;7.28;4.88;;;11.00;99.90;;;;;;5074896;28;20056;-78
2021/05/23 05:12:25;;;;;;;7.90;5.43;;;11.00;99.90;;;;;;5075137;28;20024;-78
2021/05/23 05:14:51;;;;;;;6.57;4.60;;;11.00;99.90;;;;;;5073364;28;20029;-78
2021/05/23 05:17:16;;;;;;;5.57;3.88;;;11.00;99.90;;;;;;5075455;28;20024;-78
2021/05/23 05:19:42;;;;;;;8.77;5.20;;;11.00;99.90;;;;;;5074939;28;20050;-77
2021/05/23 05:22:08;;;;;;;8.35;5.72;;;11.00;99.90;;;;;;5067677;28;20064;-80
2021/05/23 05:24:34;;;;;;;9.40;5.82;;;11.00;99.90;;;;;;5069901;28;20365;-80
2021/05/23 05:26:59;;;;;;;10.15;6.90;;;11.00;99.90;;;;;;5071172;28;20082;-79
2021/05/23 05:29:25;;;;;;;13.40;7.97;;;10.80;99.90;;;;;;5074459;28;20024;-79
2021/05/23 05:31:51;;;;;;;7.90;6.28;;;10.80;99.90;;;;;;5070495;28;20024;-78
2021/05/23 05:34:17;;;;;;;11.98;7.07;;;10.70;99.90;;;;;;5074064;28;20051;-78
2021/05/23 05:36:42;;;;;;;13.40;8.38;;;10.70;99.90;;;;;;5072969;28;20111;-78
2021/05/23 05:39:10;;;;;;;16.67;9.25;;;10.80;99.90;;;;;;5070568;28;20029;-78
2021/05/23 05:41:36;;;;;;;20.88;11.02;;;10.80;99.90;;;;;;5054456;28;20032;-77
2021/05/23 05:44:02;;;;;;;26.40;10.50;;;10.80;99.90;;;;;;5064691;28;20068;-77
2021/05/23 05:46:27;;;;;;;26.23;12.50;;;10.90;99.90;;;;;;5061413;28;20059;-78
2021/05/23 05:48:53;;;;;;;25.42;12.27;;;10.90;99.90;;;;;;5070426;28;20036;-79
2021/05/23 05:51:19;;;;;;;22.90;12.43;;;11.00;99.90;;;;;;5069143;28;20378;-80
2021/05/23 05:53:44;;;;;;;29.75;12.55;;;11.00;99.90;;;;;;5059237;28;20532;-78
2021/05/23 05:56:12;;;;;;;27.88;11.45;;;11.10;99.90;;;;;;5061282;28;20424;-80
2021/05/23 05:58:37;;;;;;;35.65;12.07;;;11.10;99.90;;;;;;5072221;28;20029;-79
2021/05/23 06:01:03;;;;;;;24.95;11.63;;;11.20;99.90;;;;;;5063383;28;20032;-79
2021/05/23 06:03:29;;;;;;;26.67;12.23;;;11.20;99.90;;;;;;5059401;28;20056;-78
2021/05/23 06:05:54;;;;;;;16.35;8.85;;;11.20;99.90;;;;;;5069378;28;20047;-78
2021/05/23 06:08:21;;;;;;;13.32;6.68;;;11.00;99.90;;;;;;5070839;28;20036;-79
2021/05/23 06:10:48;;;;;;;12.45;7.13;;;10.70;99.90;;;;;;5073330;28;20380;-78
2021/05/23 06:13:13;;;;;;;12.30;5.50;;;10.50;99.90;;;;;;5060984;28;20082;-78
2021/05/23 06:15:39;;;;;;;11.02;5.13;;;10.50;99.90;;;;;;5061611;28;20440;-78
2021/05/23 06:18:05;;;;;;;8.25;5.82;;;10.40;99.90;;;;;;5073166;28;20117;-79
2021/05/23 06:20:30;;;;;;;9.88;5.32;;;10.30;99.90;;;;;;5060350;28;20037;-78
2021/05/23 06:22:56;;;;;;;8.55;5.63;;;10.30;99.90;;;;;;5073052;28;20123;-79
2021/05/23 06:25:22;;;;;;;8.60;4.95;;;10.30;99.90;;;;;;5060964;28;20032;-79
2021/05/23 06:27:48;;;;;;;7.53;4.20;;;10.30;99.90;;;;;;5067284;28;20032;-79
2021/05/23 06:30:14;;;;;;;4.55;2.97;;;10.40;99.90;;;;;;5074857;28;20021;-79
2021/05/23 06:32:40;;;;;;;4.35;3.20;;;10.50;99.90;;;;;;5074335;28;20123;-79
2021/05/23 06:35:06;;;;;;;6.00;2.88;;;10.50;99.90;;;;;;5074962;28;20060;-78
2021/05/23 06:37:32;;;;;;;8.90;3.38;;;10.50;99.90;;;;;;5083939;28;20036;-80
2021/05/23 06:39:57;;;;;;;8.23;3.47;;;10.60;99.90;;;;;;5082800;28;20037;-79
2021/05/23 06:42:24;;;;;;;10.60;3.72;;;10.70;99.90;;;;;;5084528;28;20028;-78
2021/05/23 06:44:49;;;;;;;7.55;3.60;;;10.70;99.90;;;;;;5079927;28;20024;-81
2021/05/23 06:47:15;;;;;;;16.05;4.82;;;10.70;99.90;;;;;;5082048;28;20027;-77
2021/05/23 06:49:41;;;;;;;17.48;4.65;;;10.80;99.90;;;;;;5079650;28;20051;-79
2021/05/23 06:52:07;;;;;;;11.23;4.05;;;10.70;99.90;;;;;;5082941;28;20028;-79
2021/05/23 06:54:33;;;;;;;11.13;3.58;;;10.80;99.90;;;;;;5090269;28;20031;-78
2021/05/23 06:56:58;;;;;;;20.40;4.80;;;10.80;99.90;;;;;;5081022;28;20028;-77
2021/05/23 06:59:24;;;;;;;10.55;4.07;;;10.90;99.90;;;;;;5091708;28;20032;-77
2021/05/23 07:01:50;;;;;;;12.95;4.95;;;11.00;99.90;;;;;;5088919;28;20019;-79
2021/05/23 07:04:16;;;;;;;19.70;6.47;;;11.20;99.90;;;;;;5082199;28;20101;-78
2021/05/23 07:06:42;;;;;;;15.18;4.80;;;11.20;99.90;;;;;;5064982;28;20018;-80
2021/05/23 07:09:07;;;;;;;11.98;4.03;;;11.20;99.90;;;;;;5070618;28;20384;-78
2021/05/23 07:11:33;;;;;;;17.92;4.35;;;11.30;99.90;;;;;;5070992;28;20104;-80
2021/05/23 07:13:59;;;;;;;14.40;4.05;;;11.30;99.90;;;;;;5076237;28;20099;-78
2021/05/23 07:16:24;;;;;;;7.35;3.78;;;11.50;99.90;;;;;;5072699;28;20021;-81
2021/05/23 07:18:50;;;;;;;14.40;3.70;;;11.60;99.90;;;;;;5073824;28;20021;-82
2021/05/23 07:21:16;;;;;;;7.75;3.35;;;11.70;99.90;;;;;;5058744;28;20040;-80
2021/05/23 07:23:41;;;;;;;11.55;3.65;;;11.80;99.90;;;;;;5052102;28;20029;-77
2021/05/23 07:26:07;;;;;;;9.77;3.42;;;11.70;99.90;;;;;;5070978;28;20020;-80
2021/05/23 07:28:33;;;;;;;15.77;2.88;;;11.80;99.90;;;;;;5059523;28;20029;-80
2021/05/23 07:31:00;;;;;;;16.20;4.13;;;11.90;99.90;;;;;;5066746;28;20017;-81
2021/05/23 07:33:26;;;;;;;18.35;4.13;;;11.90;99.90;;;;;;5063296;28;20491;-81
2021/05/23 07:35:52;;;;;;;7.05;3.53;;;11.90;99.90;;;;;;5054696;28;20037;-82
2021/05/23 07:38:18;;;;;;;13.75;4.28;;;11.90;99.90;;;;;;5053633;28;20481;-81
2021/05/23 07:40:43;;;;;;;22.80;4.22;;;11.90;99.90;;;;;;5053075;28;20086;-80
2021/05/23 07:43:09;;;;;;;11.77;3.70;;;12.00;99.90;;;;;;5067847;28;20111;-80
2021/05/23 07:45:35;;;;;;;11.88;3.97;;;12.00;99.90;;;;;;5068031;28;20020;-80
2021/05/23 07:48:00;;;;;;;12.57;4.45;;;12.10;99.90;;;;;;5063838;28;20024;-78
2021/05/23 07:50:26;;;;;;;15.40;3.88;;;12.20;99.90;;;;;;5061440;28;20025;-78
2021/05/23 07:52:52;;;;;;;16.65;3.75;;;12.20;99.90;;;;;;5062338;28;20020;-79
2021/05/23 07:55:18;;;;;;;12.60;3.67;;;12.30;99.90;;;;;;5060270;28;20044;-79
2021/05/23 07:57:45;;;;;;;8.00;3.83;;;12.20;99.90;;;;;;5061650;28;20090;-80
2021/05/23 08:00:11;;;;;;;14.50;3.28;;;12.20;99.90;;;;;;5061468;28;20025;-80
2021/05/23 08:02:40;;;;;;;10.32;3.83;;;12.20;99.90;;;;;;5068458;28;20036;-81
2021/05/23 08:05:06;;;;;;;15.23;4.15;;;12.30;99.90;;;;;;5071435;28;20029;-80
2021/05/23 08:07:32;;;;;;;17.13;4.93;;;12.30;99.90;;;;;;5059732;28;20122;-80
2021/05/23 08:09:58;;;;;;;5.97;3.45;;;12.50;99.90;;;;;;5070230;28;20059;-80
2021/05/23 08:12:23;;;;;;;12.80;3.78;;;12.60;99.90;;;;;;5071103;28;20541;-80
2021/05/23 08:14:49;;;;;;;9.07;3.13;;;12.50;99.90;;;;;;5071296;28;20508;-82
2021/05/23 08:17:15;;;;;;;15.43;3.97;;;12.50;99.90;;;;;;5069673;28;20036;-82
2021/05/23 08:19:41;;;;;;;15.90;3.45;;;12.50;99.90;;;;;;5069027;28;20496;-80
2021/05/23 08:22:06;;;;;;;16.60;2.83;;;12.70;99.90;;;;;;5062269;28;20518;-81
2021/05/23 08:24:33;;;;;;;5.10;2.00;;;12.80;99.90;;;;;;5061862;28;20033;-79
2021/05/23 08:27:01;;;;;;;7.63;2.17;;;12.90;99.90;;;;;;5068266;28;20017;-81
2021/05/23 08:29:30;;;;;;;5.90;1.98;;;13.20;99.90;;;;;;5067172;28;20045;-82
2021/05/23 08:31:56;;;;;;;5.88;1.70;;;13.40;99.90;;;;;;5065600;28;20046;-79
2021/05/23 08:34:22;;;;;;;4.13;1.23;;;13.70;99.90;;;;;;5071708;28;20032;-81
2021/05/23 08:36:47;;;;;;;4.63;1.50;;;14.10;99.90;;;;;;5068452;28;20077;-83
2021/05/23 08:39:13;;;;;;;4.57;1.27;;;14.40;99.90;;;;;;5070910;28;20484;-83
2021/05/23 08:41:39;;;;;;;2.22;1.05;;;14.60;99.90;;;;;;5069574;28;20035;-81
2021/05/23 08:44:05;;;;;;;5.32;1.13;;;14.50;99.90;;;;;;5064325;28;20064;-82
2021/05/23 08:46:31;;;;;;;8.20;1.42;;;14.50;99.90;;;;;;5056481;28;20067;-79
2021/05/23 08:48:57;;;;;;;1.50;1.08;;;14.40;99.90;;;;;;5077554;28;20353;-82
2021/05/23 08:51:23;;;;;;;4.70;1.30;;;14.20;99.90;;;;;;5076507;28;20031;-82
2021/05/23 08:53:49;;;;;;;3.63;1.20;;;14.00;99.90;;;;;;5076578;28;20529;-81
2021/05/23 08:56:15;;;;;;;6.95;1.70;;;14.00;99.90;;;;;;5090944;28;20115;-76
2021/05/23 08:58:41;;;;;;;6.93;2.30;;;14.20;99.90;;;;;;5094020;28;20024;-82
2021/05/23 09:01:07;;;;;;;4.80;1.10;;;14.20;99.90;;;;;;5097348;28;20059;-81
2021/05/23 09:03:32;;;;;;;6.68;2.08;;;14.10;99.90;;;;;;5087051;28;20023;-82
2021/05/23 09:05:59;;;;;;;5.32;1.42;;;14.00;99.90;;;;;;5077902;28;20033;-80
2021/05/23 09:08:30;;;;;;;5.90;1.25;;;13.90;99.90;;;;;;5063483;28;20051;-80
2021/05/23 09:10:57;;;;;;;12.13;3.40;;;13.80;99.90;;;;;;5061701;28;20025;-84
2021/05/23 09:13:32;;;;;;;19.75;3.05;;;13.60;99.90;;;;;;5068545;28;20155;-80
2021/05/23 09:16:07;;;;;;;11.63;4.30;;;13.40;99.90;;;;;;5078641;28;20029;-82
2021/05/23 09:18:52;;;;;;;6.38;1.88;;;13.30;99.90;;;;;;5077543;28;20025;-82
2021/05/23 09:21:27;;;;;;;8.52;1.60;;;13.30;99.90;;;;;;5075403;28;20029;-81
2021/05/23 09:23:54;;;;;;;8.27;4.65;;;13.20;99.90;;;;;;5074961;28;20103;-81
2021/05/23 09:26:26;;;;;;;4.18;2.20;;;13.30;99.90;;;;;;5076348;28;20016;-81
2021/05/23 09:28:53;;;;;;;10.65;4.13;;;13.30;99.90;;;;;;5074341;28;20047;-82
2021/05/23 09:31:24;;;;;;;17.17;10.35;;;13.30;99.90;;;;;;5074500;28;20019;-80
2021/05/23 09:33:54;;;;;;;5.35;2.97;;;13.30;99.90;;;;;;5074500;28;20032;-81
2021/05/23 09:36:21;;;;;;;15.85;3.58;;;13.30;99.90;;;;;;5073952;28;20381;-81
2021/05/23 09:39:03;;;;;;;12.30;2.13;;;13.30;99.90;;;;;;5074993;28;20489;-80
2021/05/23 09:41:30;;;;;;;8.88;2.05;;;13.30;99.90;;;;;;5075190;28;20093;-81
2021/05/23 09:44:16;;;;;;;7.88;3.90;;;13.40;99.90;;;;;;5075105;28;20114;-81
2021/05/23 09:47:09;;;;;;;13.07;2.78;;;13.50;99.90;;;;;;5075319;28;20389;-80
2021/05/23 09:49:40;;;;;;;5.20;1.50;;;13.70;99.90;;;;;;5073864;28;20094;-82
2021/05/23 09:52:08;;;;;;;10.02;2.33;;;13.80;99.90;;;;;;5073976;28;20020;-81
2021/05/23 09:54:47;;;;;;;7.05;2.45;;;14.00;99.90;;;;;;5074095;28;20032;-80
2021/05/23 09:57:18;;;;;;;8.57;1.83;;;13.90;99.90;;;;;;5073821;28;20036;-82
2021/05/23 09:59:44;;;;;;;7.03;2.30;;;13.60;99.90;;;;;;5073521;28;20023;-81
2021/05/23 10:02:12;;;;;;;10.18;3.75;;;13.40;99.90;;;;;;5060019;28;20025;-81
2021/05/23 10:04:39;;;;;;;7.38;2.83;;;13.20;99.90;;;;;;5072740;28;20465;-80
2021/05/23 10:07:12;;;;;;;13.43;5.63;;;13.10;99.90;;;;;;5074396;28;20055;-80
2021/05/23 10:09:39;;;;;;;11.77;3.85;;;13.20;99.90;;;;;;5074751;28;20032;-81
2021/05/23 10:12:08;;;;;;;12.27;4.30;;;13.30;99.90;;;;;;5074762;28;20050;-81
2021/05/23 10:14:34;;;;;;;8.93;4.55;;;13.40;99.90;;;;;;5073446;28;20277;-81
2021/05/23 10:17:01;;;;;;;61.88;36.63;;;13.40;99.90;;;;;;5073346;28;20052;-80
2021/05/23 10:19:30;;;;;;;51.90;24.08;;;13.50;99.90;;;;;;5073292;28;20028;-80
2021/05/23 10:21:59;;;;;;;55.97;28.98;;;13.50;99.90;;;;;;5073314;28;20121;-80
2021/05/23 10:24:46;;;;;;;97.47;42.53;;;13.50;99.90;;;;;;5074841;28;20541;-80
2021/05/23 10:27:24;;;;;;;193.85;97.47;;;13.40;99.90;;;;;;5073006;28;20033;-81
2021/05/23 10:29:56;;;;;;;105.45;51.53;;;13.20;99.90;;;;;;5074258;28;20025;-82
2021/05/23 10:32:30;;;;;;;204.25;100.28;;;13.20;99.90;;;;;;5064777;28;20062;-83
2021/05/23 10:34:57;;;;;;;87.68;40.92;;;13.10;99.90;;;;;;5069184;28;20551;-80
2021/05/23 10:37:28;;;;;;;63.90;26.27;;;13.10;99.90;;;;;;5064785;28;20032;-81
2021/05/23 10:39:54;;;;;;;8.80;3.28;;;13.20;99.90;;;;;;5073525;28;20063;-82
2021/05/23 10:42:24;;;;;;;11.27;4.63;;;13.40;99.90;;;;;;5072676;28;20370;-80
2021/05/23 10:44:54;;;;;;;4.75;2.50;;;13.60;99.90;;;;;;5071021;28;20033;-80
2021/05/23 10:47:27;;;;;;;2.58;1.30;;;14.00;99.90;;;;;;5064846;28;20032;-82
2021/05/23 10:50:02;;;;;;;13.13;5.97;;;14.50;99.90;;;;;;5074387;28;20585;-80
2021/05/23 10:52:30;;;;;;;4.78;3.38;;;14.70;99.90;;;;;;5074068;28;20025;-81
2021/05/23 10:55:27;;;;;;;8.88;1.17;;;14.80;99.90;;;;;;5071838;28;20032;-80
2021/05/23 10:57:55;;;;;;;15.25;3.95;;;14.70;99.90;;;;;;5068269;28;20046;-80
2021/05/23 11:00:20;;;;;;;6.82;2.67;;;14.60;99.90;;;;;;5071918;28;20040;-82
2021/05/23 11:02:47;;;;;;;3.70;1.77;;;14.40;99.90;;;;;;5067237;28;20404;-80
2021/05/23 11:05:25;;;;;;;44.30;20.88;;;14.40;99.90;;;;;;5073302;28;20074;-82
2021/05/23 11:07:57;;;;;;;5.03;1.67;;;14.40;99.90;;;;;;5068477;28;20033;-80
2021/05/23 11:10:26;;;;;;;12.27;2.72;;;14.50;99.90;;;;;;5068598;28;20037;-79
2021/05/23 11:12:54;;;;;;;62.05;22.95;;;14.80;99.90;;;;;;5069690;28;20016;-79
2021/05/23 11:15:21;;;;;;;4.43;1.33;;;14.90;99.90;;;;;;5080054;28;20035;-78
2021/05/23 11:17:52;;;;;;;18.23;9.13;;;15.10;99.90;;;;;;5085589;28;20063;-79
2021/05/23 11:20:20;;;;;;;35.45;17.10;;;15.40;99.90;;;;;;5074396;28;20025;-80
2021/05/23 11:23:04;;;;;;;9.82;1.80;;;15.70;99.90;;;;;;5075857;28;20013;-81
2021/05/23 11:25:31;;;;;;;5.88;3.97;;;16.10;99.90;;;;;;5095639;28;20036;-79
2021/05/23 11:27:59;;;;;;;10.73;1.92;;;16.00;99.90;;;;;;5090274;28;20063;-79
2021/05/23 11:30:27;;;;;;;3.60;1.42;;;16.10;99.90;;;;;;5086343;28;20037;-81
2021/05/23 11:33:03;;;;;;;5.55;1.40;;;16.10;99.90;;;;;;5077533;28;20041;-80
2021/05/23 11:35:30;;;;;;;4.38;0.73;;;16.00;99.90;;;;;;5089224;28;20091;-81
2021/05/23 11:37:57;;;;;;;12.35;3.33;;;15.90;99.90;;;;;;5087174;28;20016;-79
2021/05/23 11:40:28;;;;;;;6.90;1.88;;;16.10;99.90;;;;;;5091223;28;20039;-75
2021/05/23 11:42:54;;;;;;;16.00;9.50;;;16.00;99.90;;;;;;5061685;28;20064;-81
2021/05/23 11:45:24;;;;;;;13.68;6.45;;;15.80;99.90;;;;;;5069794;28;20102;-80
2021/05/23 11:47:52;;;;;;;8.45;4.65;;;15.40;99.90;;;;;;5075956;28;20043;-81
2021/05/23 11:50:26;;;;;;;3.70;2.05;;;15.40;99.90;;;;;;5076924;28;20028;-79
2021/05/23 11:52:57;;;;;;;26.52;13.52;;;15.50;99.90;;;;;;5087166;28;20039;-79
2021/05/23 11:55:24;;;;;;;212.18;105.30;;;15.50;99.90;;;;;;5071830;28;20044;-78
2021/05/23 11:57:51;;;;;;;25.55;11.73;;;15.40;99.90;;;;;;5058241;28;20111;-78
2021/05/23 12:00:22;;;;;;;25.65;12.00;;;15.80;99.90;;;;;;5071281;28;20032;-78
2021/05/23 12:03:01;;;;;;;25.17;12.45;;;16.10;99.90;;;;;;5058872;28;20037;-78
2021/05/23 12:05:41;;;;;;;7.93;3.28;;;16.10;99.90;;;;;;5058242;28;20025;-78
2021/05/23 12:08:19;;;;;;;7.28;1.70;;;15.70;99.90;;;;;;5072328;28;20036;-77
2021/05/23 12:10:58;;;;;;;5.50;3.15;;;15.40;99.90;;;;;;5066115;28;20104;-77
2021/05/23 12:13:44;;;;;;;8.98;3.00;;;15.40;99.90;;;;;;5073033;28;20388;-78
2021/05/23 12:16:12;;;;;;;5.18;2.45;;;15.50;99.90;;;;;;5085152;28;20029;-78
2021/05/23 12:18:47;;;;;;;6.40;1.98;;;15.90;99.90;;;;;;5066599;28;20024;-77
2021/05/23 12:21:18;;;;;;;5.82;3.47;;;16.10;99.90;;;;;;5072803;28;20130;-79
2021/05/23 12:23:47;;;;;;;4.85;1.20;;;16.10;99.90;;;;;;5070410;28;20480;-78
2021/05/23 12:26:15;;;;;;;3.40;1.83;;;16.10;99.90;;;;;;5063458;28;20132;-78
2021/05/23 12:28:44;;;;;;;31.30;15.52;;;15.90;99.90;;;;;;5069423;28;20044;-77
2021/05/23 12:31:11;;;;;;;10.48;3.95;;;15.90;99.90;;;;;;5067035;28;20066;-76
2021/05/23 12:33:37;;;;;;;173.77;61.13;;;16.00;99.90;;;;;;5078954;28;20021;-76
2021/05/23 12:36:09;;;;;;;11.30;3.85;;;16.20;99.90;;;;;;5071649;28;20029;-77
2021/05/23 12:38:36;;;;;;;6.13;2.60;;;16.30;99.90;;;;;;5070803;28;20033;-78
2021/05/23 12:41:02;;;;;;;41.30;18.37;;;16.30;99.90;;;;;;5068884;28;20085;-79
2021/05/23 12:43:33;;;;;;;20.10;5.03;;;16.20;99.90;;;;;;5067640;28;20132;-78